createdAt,value
2016-10-25T00:00:30.217Z,0
2016-10-25T00:01:58.443Z,0
2016-10-25T00:02:28.598Z,0
2016-10-25T00:03:28.246Z,0
2016-10-25T00:04:28.213Z,0
2016-10-25T00:05:42.911Z,0
2016-10-25T00:06:28.139Z,0
2016-10-25T00:07:28.132Z,0
2016-10-25T00:08:42.811Z,0
2016-10-25T00:09:28.092Z,0
2016-10-25T00:10:28.059Z,0
2016-10-25T00:11:28.343Z,0
2016-10-25T00:12:28.715Z,0
2016-10-25T00:13:28.003Z,0
2016-10-25T00:14:28.045Z,0
2016-10-25T00:15:28.318Z,0
2016-10-25T00:16:27.851Z,0
2016-10-25T00:17:27.829Z,0
2016-10-25T00:18:28.219Z,0
2016-10-25T00:19:27.794Z,0
2016-10-25T00:20:28.432Z,0
2016-10-25T00:21:28.078Z,0
2016-10-25T00:22:27.701Z,0
2016-10-25T00:23:28.072Z,0
2016-10-25T00:24:27.627Z,0
2016-10-25T00:25:27.684Z,0
2016-10-25T00:26:27.575Z,0
2016-10-25T00:27:27.526Z,0
2016-10-25T00:28:27.635Z,0
2016-10-25T00:29:27.471Z,0
2016-10-25T00:31:27.789Z,0
2016-10-25T00:32:42.348Z,0
2016-10-25T00:33:27.368Z,0
2016-10-25T00:34:27.330Z,0
2016-10-25T00:35:27.305Z,0
2016-10-25T00:36:27.288Z,0
2016-10-25T00:37:27.234Z,0
2016-10-25T00:38:28.036Z,0
2016-10-25T00:39:27.176Z,0
2016-10-25T00:40:27.174Z,0
2016-10-25T00:41:27.130Z,0
2016-10-25T00:42:27.466Z,0
2016-10-25T00:43:27.082Z,0
2016-10-25T00:44:27.072Z,0
2016-10-25T00:45:27.029Z,0
2016-10-25T00:46:27.853Z,0
2016-10-25T00:47:26.972Z,0
2016-10-25T00:48:26.907Z,0
2016-10-25T00:49:26.906Z,0
2016-10-25T00:50:26.901Z,0
2016-10-25T00:51:26.950Z,0
2016-10-25T00:53:27.524Z,0
2016-10-25T00:54:27.185Z,0
2016-10-25T00:55:27.092Z,0
2016-10-25T00:56:27.183Z,0
2016-10-25T00:57:27.010Z,0
2016-10-25T00:58:26.637Z,0
2016-10-25T00:59:26.979Z,0
2016-10-25T01:00:27.006Z,0
2016-10-25T01:01:27.994Z,0
2016-10-25T01:02:26.947Z,0
2016-10-25T01:03:26.491Z,0
2016-10-25T01:04:26.473Z,0
2016-10-25T01:05:27.210Z,0
2016-10-25T01:06:26.478Z,0
2016-10-25T01:07:26.424Z,0
2016-10-25T01:09:26.692Z,0
2016-10-25T01:10:27.386Z,0
2016-10-25T01:11:26.302Z,0
2016-10-25T01:12:26.233Z,0
2016-10-25T01:13:26.636Z,0
2016-10-25T01:14:26.548Z,0
2016-10-25T01:15:26.821Z,0
2016-10-25T01:16:26.173Z,0
2016-10-25T01:17:26.145Z,0
2016-10-25T01:18:26.108Z,0
2016-10-25T01:19:26.223Z,0
2016-10-25T01:20:26.075Z,0
2016-10-25T01:21:25.966Z,0
2016-10-25T01:22:25.973Z,0
2016-10-25T01:23:26.725Z,0
2016-10-25T01:24:25.886Z,0
2016-10-25T01:25:25.868Z,0
2016-10-25T01:27:26.195Z,0
2016-10-25T01:28:41.168Z,0
2016-10-25T01:29:26.123Z,0
2016-10-25T01:30:25.718Z,0
2016-10-25T01:31:25.759Z,0
2016-10-25T01:32:26.997Z,0
2016-10-25T01:33:25.636Z,0
2016-10-25T01:34:25.655Z,0
2016-10-25T01:35:25.959Z,0
2016-10-25T01:36:25.650Z,0
2016-10-25T01:37:25.874Z,0
2016-10-25T01:38:25.514Z,0
2016-10-25T01:39:25.469Z,0
2016-10-25T01:40:25.909Z,0
2016-10-25T01:41:25.816Z,0
2016-10-25T01:42:25.394Z,0
2016-10-25T01:43:25.832Z,0
2016-10-25T01:44:25.327Z,0
2016-10-25T01:45:26.052Z,0
2016-10-25T01:46:25.275Z,0
2016-10-25T01:47:25.271Z,0
2016-10-25T01:48:25.284Z,0
2016-10-25T01:49:27.028Z,0
2016-10-25T01:50:25.159Z,0
2016-10-25T01:51:25.135Z,0
2016-10-25T01:52:25.101Z,0
2016-10-25T01:53:25.416Z,0
2016-10-25T01:54:39.752Z,0
2016-10-25T01:55:25.142Z,0
2016-10-25T01:56:39.702Z,0
2016-10-25T01:57:25.010Z,0
2016-10-25T01:58:24.928Z,0
2016-10-25T01:59:24.905Z,0
2016-10-25T02:00:25.164Z,0
2016-10-25T02:01:24.828Z,0
2016-10-25T02:02:24.802Z,0
2016-10-25T02:03:25.531Z,0
2016-10-25T02:04:26.150Z,0
2016-10-25T02:05:24.717Z,0
2016-10-25T02:06:24.681Z,0
2016-10-25T02:07:24.703Z,0
2016-10-25T02:08:24.772Z,0
2016-10-25T02:09:24.642Z,0
2016-10-25T02:10:24.580Z,0
2016-10-25T02:11:24.950Z,0
2016-10-25T02:12:25.212Z,0
2016-10-25T02:13:24.480Z,0
2016-10-25T02:14:24.555Z,0
2016-10-25T02:15:25.446Z,0
2016-10-25T02:16:39.437Z,0
2016-10-25T02:17:24.408Z,0
2016-10-25T02:18:24.693Z,0
2016-10-25T02:19:24.312Z,0
2016-10-25T02:20:39.060Z,0
2016-10-25T02:21:24.692Z,0
2016-10-25T02:22:24.283Z,0
2016-10-25T02:23:24.225Z,0
2016-10-25T02:24:24.203Z,0
2016-10-25T02:25:24.157Z,0
2016-10-25T02:26:24.111Z,0
2016-10-25T02:27:38.825Z,0
2016-10-25T02:28:24.097Z,0
2016-10-25T02:29:24.041Z,0
2016-10-25T02:30:23.993Z,0
2016-10-25T02:31:23.971Z,0
2016-10-25T02:32:23.941Z,0
2016-10-25T02:33:23.909Z,0
2016-10-25T02:34:24.339Z,0
2016-10-25T02:35:23.851Z,0
2016-10-25T02:36:23.816Z,0
2016-10-25T02:37:23.811Z,0
2016-10-25T02:38:23.786Z,0
2016-10-25T02:39:23.777Z,0
2016-10-25T02:40:23.745Z,0
2016-10-25T02:41:23.684Z,0
2016-10-25T02:43:23.619Z,0
2016-10-25T02:44:39.001Z,0
2016-10-25T02:45:23.911Z,0
2016-10-25T02:46:24.299Z,0
2016-10-25T02:47:24.236Z,0
2016-10-25T02:48:23.492Z,0
2016-10-25T02:49:24.216Z,0
2016-10-25T02:50:24.852Z,0
2016-10-25T02:51:59.899Z,0
2016-10-25T02:52:23.884Z,0
2016-10-25T02:53:23.358Z,0
2016-10-25T02:54:23.315Z,0
2016-10-25T02:55:23.305Z,0
2016-10-25T02:56:23.282Z,0
2016-10-25T02:57:23.215Z,0
2016-10-25T02:58:23.252Z,0
2016-10-25T02:59:23.167Z,0
2016-10-25T03:00:23.534Z,0
2016-10-25T03:01:25.257Z,0
2016-10-25T03:02:23.089Z,0
2016-10-25T03:03:23.075Z,0
2016-10-25T03:04:23.019Z,0
2016-10-25T03:05:23.025Z,0
2016-10-25T03:06:22.962Z,0
2016-10-25T03:07:22.986Z,0
2016-10-25T03:08:37.634Z,0
2016-10-25T03:09:22.879Z,0
2016-10-25T03:10:23.325Z,0
2016-10-25T03:11:22.873Z,0
2016-10-25T03:12:22.965Z,0
2016-10-25T03:13:22.751Z,0
2016-10-25T03:14:22.755Z,0
2016-10-25T03:15:39.597Z,0
2016-10-25T03:16:22.921Z,0
2016-10-25T03:17:37.377Z,0
2016-10-25T03:18:22.635Z,0
2016-10-25T03:19:22.612Z,0
2016-10-25T03:20:22.591Z,0
2016-10-25T03:21:22.533Z,0
2016-10-25T03:22:24.411Z,0
2016-10-25T03:23:22.498Z,0
2016-10-25T03:24:22.469Z,0
2016-10-25T03:25:22.543Z,0
2016-10-25T03:26:22.764Z,0
2016-10-25T03:27:22.773Z,0
2016-10-25T03:28:23.020Z,0
2016-10-25T03:29:22.307Z,0
2016-10-25T03:30:22.695Z,0
2016-10-25T03:31:22.670Z,0
2016-10-25T03:32:23.097Z,0
2016-10-25T03:33:22.635Z,0
2016-10-25T03:34:22.544Z,0
2016-10-25T03:35:22.238Z,0
2016-10-25T03:36:22.104Z,0
2016-10-25T03:37:22.092Z,0
2016-10-25T03:38:22.398Z,0
2016-10-25T03:39:36.748Z,0
2016-10-25T03:40:22.718Z,0
2016-10-25T03:41:21.966Z,0
2016-10-25T03:42:22.330Z,0
2016-10-25T03:44:33.702Z,0
2016-10-25T03:45:33.344Z,0
2016-10-25T03:46:33.253Z,0
2016-10-25T03:47:33.592Z,0
2016-10-25T03:48:47.979Z,0
2016-10-25T03:49:33.632Z,0
2016-10-25T03:50:48.403Z,0
2016-10-25T03:51:33.234Z,0
2016-10-25T03:53:33.508Z,0
2016-10-25T03:54:33.466Z,0
2016-10-25T03:55:33.399Z,0
2016-10-25T03:56:32.997Z,0
2016-10-25T03:57:32.984Z,0
2016-10-25T03:58:33.050Z,0
2016-10-25T03:59:33.115Z,0
2016-10-25T04:00:33.317Z,0
2016-10-25T04:01:32.897Z,0
2016-10-25T04:02:33.753Z,0
2016-10-25T04:03:32.787Z,0
2016-10-25T04:04:34.528Z,0
2016-10-25T04:06:33.338Z,0
2016-10-25T04:07:33.365Z,0
2016-10-25T04:08:32.950Z,0
2016-10-25T04:09:32.731Z,0
2016-10-25T04:10:32.610Z,0
2016-10-25T04:11:32.781Z,0
2016-10-25T04:12:32.580Z,0
2016-10-25T04:13:32.582Z,0
2016-10-25T04:14:32.813Z,0
2016-10-25T04:15:32.436Z,0
2016-10-25T04:16:32.581Z,0
2016-10-25T04:17:32.429Z,0
2016-10-25T04:18:32.730Z,0
2016-10-25T04:19:32.401Z,0
2016-10-25T04:20:32.990Z,0
2016-10-25T04:21:32.393Z,0
2016-10-25T04:22:47.481Z,0
2016-10-25T04:23:32.463Z,0
2016-10-25T04:24:32.417Z,0
2016-10-25T04:25:32.595Z,0
2016-10-25T04:26:32.198Z,0
2016-10-25T04:27:32.566Z,0
2016-10-25T04:28:32.610Z,0
2016-10-25T04:29:32.400Z,0
2016-10-25T04:30:32.095Z,0
2016-10-25T04:31:32.361Z,0
2016-10-25T04:32:32.385Z,0
2016-10-25T04:34:01.746Z,0
2016-10-25T04:34:32.240Z,0
2016-10-25T04:35:31.929Z,0
2016-10-25T04:36:33.173Z,0
2016-10-25T04:37:31.887Z,0
2016-10-25T04:38:46.938Z,0
2016-10-25T04:39:31.752Z,0
2016-10-25T04:40:31.769Z,0
2016-10-25T04:41:31.708Z,0
2016-10-25T04:42:32.135Z,0
2016-10-25T04:43:32.005Z,0
2016-10-25T04:44:31.599Z,0
2016-10-25T04:46:31.548Z,0
2016-10-25T04:47:31.530Z,0
2016-10-25T04:48:32.200Z,0
2016-10-25T04:49:32.227Z,0
2016-10-25T04:50:32.511Z,0
2016-10-25T04:51:31.454Z,0
2016-10-25T04:52:31.756Z,0
2016-10-25T04:53:31.867Z,0
2016-10-25T04:54:31.446Z,0
2016-10-25T04:55:31.335Z,0
2016-10-25T04:56:32.096Z,0
2016-10-25T04:57:31.283Z,0
2016-10-25T04:58:31.421Z,0
2016-10-25T04:59:31.553Z,0
2016-10-25T05:00:46.760Z,0
2016-10-25T05:01:31.547Z,0
2016-10-25T05:02:31.110Z,0
2016-10-25T05:03:31.452Z,0
2016-10-25T05:05:44.031Z,0
2016-10-25T05:06:40.780Z,0
2016-10-25T05:07:40.243Z,0
2016-10-25T05:08:41.012Z,0
2016-10-25T05:09:47.284Z,0
2016-10-25T05:10:40.737Z,0
2016-10-25T05:11:40.747Z,0
2016-10-25T05:12:40.075Z,0
2016-10-25T05:13:40.477Z,0
2016-10-25T05:14:39.972Z,0
2016-10-25T05:15:40.372Z,0
2016-10-25T05:16:40.102Z,0
2016-10-25T05:17:40.067Z,0
2016-10-25T05:18:40.214Z,0
2016-10-25T05:20:40.163Z,0
2016-10-25T05:21:39.867Z,0
2016-10-25T05:22:39.781Z,0
2016-10-25T05:23:39.716Z,0
2016-10-25T05:24:54.763Z,0
2016-10-25T05:25:40.071Z,0
2016-10-25T05:26:40.021Z,0
2016-10-25T05:27:39.765Z,0
2016-10-25T05:28:39.604Z,0
2016-10-25T05:29:39.871Z,0
2016-10-25T05:30:39.538Z,0
2016-10-25T05:31:54.670Z,0
2016-10-25T05:32:40.278Z,0
2016-10-25T05:33:39.785Z,0
2016-10-25T05:34:39.747Z,0
2016-10-25T05:35:39.633Z,0
2016-10-25T05:36:40.002Z,0
2016-10-25T05:37:39.849Z,0
2016-10-25T05:38:39.298Z,0
2016-10-25T05:39:39.647Z,0
2016-10-25T05:40:39.642Z,0
2016-10-25T05:41:39.754Z,0
2016-10-25T05:42:53.957Z,0
2016-10-25T05:43:39.991Z,0
2016-10-25T05:44:54.981Z,0
2016-10-25T05:45:39.084Z,0
2016-10-25T05:46:40.103Z,0
2016-10-25T05:47:39.494Z,0
2016-10-25T05:48:53.743Z,0
2016-10-25T05:49:39.470Z,0
2016-10-25T05:50:39.769Z,0
2016-10-25T05:51:39.169Z,0
2016-10-25T05:52:39.438Z,0
2016-10-25T05:53:38.916Z,0
2016-10-25T05:54:39.905Z,0
2016-10-25T05:55:38.868Z,0
2016-10-25T05:56:39.300Z,0
2016-10-25T05:57:53.950Z,0
2016-10-25T05:58:38.745Z,0
2016-10-25T05:59:39.686Z,0
2016-10-25T06:00:38.823Z,0
2016-10-25T06:01:40.010Z,0
2016-10-25T06:02:38.959Z,0
2016-10-25T06:03:39.088Z,0
2016-10-25T06:04:39.664Z,0
2016-10-25T06:05:38.955Z,0
2016-10-25T06:06:38.500Z,0
2016-10-25T06:07:38.877Z,0
2016-10-25T06:08:39.270Z,0
2016-10-25T06:09:38.440Z,0
2016-10-25T06:10:38.397Z,0
2016-10-25T06:11:38.818Z,0
2016-10-25T06:12:40.205Z,0
2016-10-25T06:13:39.521Z,4
2016-10-25T06:14:38.602Z,4
2016-10-25T06:15:39.687Z,4
2016-10-25T06:16:38.984Z,4
2016-10-25T06:17:38.252Z,0
2016-10-25T06:18:38.159Z,0
2016-10-25T06:19:38.179Z,0
2016-10-25T06:20:38.911Z,0
2016-10-25T06:22:38.235Z,0
2016-10-25T06:23:53.048Z,4
2016-10-25T06:24:38.672Z,4
2016-10-25T06:25:37.972Z,0
2016-10-25T06:26:37.960Z,4
2016-10-25T06:27:37.901Z,4
2016-10-25T06:28:37.857Z,8
2016-10-25T06:29:37.834Z,8
2016-10-25T06:30:38.893Z,8
2016-10-25T06:31:38.071Z,8
2016-10-25T06:32:37.778Z,4
2016-10-25T06:33:37.737Z,4
2016-10-25T06:34:37.723Z,4
2016-10-25T06:35:40.276Z,4
2016-10-25T06:36:38.307Z,4
2016-10-25T06:37:38.503Z,4
2016-10-25T06:38:38.491Z,4
2016-10-25T06:39:37.952Z,4
2016-10-25T06:40:38.327Z,4
2016-10-25T06:41:37.585Z,4
2016-10-25T06:42:38.206Z,8
2016-10-25T06:43:52.783Z,8
2016-10-25T06:44:38.064Z,8
2016-10-25T06:45:37.559Z,8
2016-10-25T06:46:37.715Z,8
2016-10-25T06:47:37.420Z,8
2016-10-25T06:48:37.657Z,8
2016-10-25T06:49:37.290Z,4
2016-10-25T06:50:43.906Z,8
2016-10-25T06:51:37.232Z,8
2016-10-25T06:52:37.194Z,8
2016-10-25T06:53:37.362Z,8
2016-10-25T06:54:37.113Z,8
2016-10-25T06:55:37.325Z,8
2016-10-25T06:56:37.081Z,8
2016-10-25T06:57:37.112Z,8
2016-10-25T06:58:37.540Z,8
2016-10-25T06:59:37.426Z,8
2016-10-25T07:00:37.382Z,8
2016-10-25T07:01:37.311Z,12
2016-10-25T07:02:36.883Z,12
2016-10-25T07:03:36.972Z,12
2016-10-25T07:04:37.293Z,8
2016-10-25T07:05:36.972Z,12
2016-10-25T07:06:37.031Z,8
2016-10-25T07:07:37.534Z,8
2016-10-25T07:08:36.736Z,8
2016-10-25T07:09:37.133Z,8
2016-10-25T07:10:36.707Z,8
2016-10-25T07:11:37.036Z,8
2016-10-25T07:12:36.998Z,8
2016-10-25T07:13:37.288Z,8
2016-10-25T07:14:36.599Z,12
2016-10-25T07:15:37.426Z,8
2016-10-25T07:16:36.932Z,12
2016-10-25T07:17:36.465Z,12
2016-10-25T07:18:36.419Z,12
2016-10-25T07:19:36.438Z,12
2016-10-25T07:20:36.737Z,16
2016-10-25T07:21:36.390Z,12
2016-10-25T07:22:36.802Z,12
2016-10-25T07:23:36.675Z,16
2016-10-25T07:24:51.356Z,16
2016-10-25T07:25:36.466Z,16
2016-10-25T07:26:50.968Z,12
2016-10-25T07:27:36.331Z,12
2016-10-25T07:28:36.158Z,16
2016-10-25T07:29:36.556Z,16
2016-10-25T07:30:36.216Z,16
2016-10-25T07:31:36.070Z,16
2016-10-25T07:32:36.067Z,16
2016-10-25T07:33:36.062Z,20
2016-10-25T07:34:35.991Z,16
2016-10-25T07:35:36.086Z,12
2016-10-25T07:36:51.534Z,12
2016-10-25T07:37:35.879Z,12
2016-10-25T07:38:36.257Z,12
2016-10-25T07:39:35.841Z,20
2016-10-25T07:40:36.212Z,16
2016-10-25T07:41:36.182Z,16
2016-10-25T07:42:35.854Z,12
2016-10-25T07:43:35.761Z,16
2016-10-25T07:44:50.799Z,16
2016-10-25T07:45:35.715Z,16
2016-10-25T07:46:36.007Z,16
2016-10-25T07:47:35.657Z,12
2016-10-25T07:48:35.586Z,12
2016-10-25T07:49:36.249Z,12
2016-10-25T07:50:35.629Z,12
2016-10-25T07:51:35.596Z,12
2016-10-25T07:52:35.926Z,16
2016-10-25T07:53:35.447Z,16
2016-10-25T07:54:35.680Z,16
2016-10-25T07:56:36.608Z,16
2016-10-25T07:57:35.337Z,12
2016-10-25T07:58:35.313Z,16
2016-10-25T07:59:35.263Z,20
2016-10-25T08:00:36.043Z,16
2016-10-25T08:01:36.120Z,24
2016-10-25T08:02:49.938Z,16
2016-10-25T08:03:35.160Z,20
2016-10-25T08:04:35.167Z,20
2016-10-25T08:05:36.109Z,20
2016-10-25T08:06:35.449Z,20
2016-10-25T08:07:35.093Z,20
2016-10-25T08:08:50.147Z,20
2016-10-25T08:09:35.050Z,20
2016-10-25T08:10:35.295Z,20
2016-10-25T08:11:34.939Z,20
2016-10-25T08:12:34.887Z,20
2016-10-25T08:13:35.094Z,20
2016-10-25T08:14:34.883Z,20
2016-10-25T08:15:34.821Z,20
2016-10-25T08:16:34.792Z,20
2016-10-25T08:17:34.796Z,24
2016-10-25T08:18:35.120Z,24
2016-10-25T08:19:49.762Z,24
2016-10-25T08:20:34.666Z,20
2016-10-25T08:22:35.392Z,20
2016-10-25T08:23:35.013Z,20
2016-10-25T08:24:34.572Z,28
2016-10-25T08:25:35.368Z,32
2016-10-25T08:26:49.768Z,28
2016-10-25T08:27:34.835Z,28
2016-10-25T08:28:34.472Z,24
2016-10-25T08:29:34.865Z,24
2016-10-25T08:30:34.896Z,20
2016-10-25T08:31:49.141Z,20
2016-10-25T08:32:34.803Z,16
2016-10-25T08:33:34.942Z,20
2016-10-25T08:34:34.780Z,20
2016-10-25T08:35:34.342Z,16
2016-10-25T08:36:34.374Z,16
2016-10-25T08:37:34.455Z,24
2016-10-25T08:38:48.894Z,24
2016-10-25T08:39:34.910Z,24
2016-10-25T08:40:34.624Z,24
2016-10-25T08:41:34.115Z,24
2016-10-25T08:42:34.046Z,20
2016-10-25T08:43:34.041Z,20
2016-10-25T08:44:34.391Z,20
2016-10-25T08:45:33.981Z,24
2016-10-25T08:46:49.059Z,36
2016-10-25T08:47:33.901Z,44
2016-10-25T08:48:33.913Z,48
2016-10-25T08:49:33.826Z,52
2016-10-25T08:50:33.876Z,60
2016-10-25T08:51:34.150Z,40
2016-10-25T08:52:48.514Z,48
2016-10-25T08:53:34.251Z,44
2016-10-25T08:54:34.086Z,44
2016-10-25T08:55:33.687Z,48
2016-10-25T08:56:34.015Z,48
2016-10-25T08:58:33.908Z,56
2016-10-25T08:59:48.274Z,56
2016-10-25T09:00:48.705Z,76
2016-10-25T09:01:34.465Z,84
2016-10-25T09:02:33.481Z,88
2016-10-25T09:03:33.919Z,72
2016-10-25T09:04:48.211Z,84
2016-10-25T09:05:34.765Z,80
2016-10-25T09:06:33.725Z,80
2016-10-25T09:07:33.768Z,80
2016-10-25T09:08:33.852Z,72
2016-10-25T09:09:33.667Z,64
2016-10-25T09:10:48.052Z,60
2016-10-25T09:11:34.025Z,64
2016-10-25T09:12:33.581Z,68
2016-10-25T09:13:33.526Z,68
2016-10-25T09:14:33.874Z,80
2016-10-25T09:15:33.100Z,68
2016-10-25T09:16:33.129Z,68
2016-10-25T09:17:33.406Z,68
2016-10-25T09:18:33.433Z,76
2016-10-25T09:19:32.985Z,76
2016-10-25T09:20:33.008Z,72
2016-10-25T09:21:47.958Z,72
2016-10-25T09:22:33.316Z,72
2016-10-25T09:23:33.337Z,68
2016-10-25T09:24:33.650Z,64
2016-10-25T09:25:32.836Z,64
2016-10-25T09:26:32.808Z,56
2016-10-25T09:27:32.854Z,60
2016-10-25T09:28:32.716Z,68
2016-10-25T09:29:32.938Z,72
2016-10-25T09:30:47.384Z,64
2016-10-25T09:31:32.614Z,60
2016-10-25T09:32:32.681Z,64
2016-10-25T09:34:32.533Z,64
2016-10-25T09:35:47.292Z,68
2016-10-25T09:37:53.277Z,64
2016-10-25T09:38:33.386Z,68
2016-10-25T09:39:47.925Z,64
2016-10-25T09:40:32.464Z,56
2016-10-25T09:41:33.063Z,60
2016-10-25T09:42:32.635Z,64
2016-10-25T09:43:32.641Z,68
2016-10-25T09:44:32.282Z,68
2016-10-25T09:45:32.280Z,76
2016-10-25T09:47:01.644Z,72
2016-10-25T09:47:32.238Z,68
2016-10-25T09:48:32.444Z,68
2016-10-25T09:49:32.120Z,60
2016-10-25T09:50:32.888Z,56
2016-10-25T09:51:33.445Z,52
2016-10-25T09:52:32.387Z,48
2016-10-25T09:53:32.480Z,44
2016-10-25T09:54:33.019Z,48
2016-10-25T09:55:33.113Z,52
2016-10-25T09:56:32.369Z,56
2016-10-25T09:57:33.501Z,84
2016-10-25T09:58:31.879Z,72
2016-10-25T09:59:32.174Z,60
2016-10-25T10:01:32.581Z,84
2016-10-25T10:02:31.765Z,72
2016-10-25T10:03:32.075Z,64
2016-10-25T10:04:31.794Z,76
2016-10-25T10:05:32.442Z,72
2016-10-25T10:06:31.697Z,72
2016-10-25T10:07:31.960Z,68
2016-10-25T10:08:31.625Z,68
2016-10-25T10:09:31.657Z,64
2016-10-25T10:11:31.517Z,76
2016-10-25T10:13:31.428Z,88
2016-10-25T10:14:32.222Z,88
2016-10-25T10:15:31.729Z,92
2016-10-25T10:16:31.408Z,96
2016-10-25T10:17:32.441Z,84
2016-10-25T10:18:31.300Z,80
2016-10-25T10:19:31.232Z,76
2016-10-25T10:20:31.212Z,68
2016-10-25T10:21:31.212Z,68
2016-10-25T10:22:31.543Z,72
2016-10-25T10:23:31.143Z,72
2016-10-25T10:24:31.089Z,80
2016-10-25T10:25:46.526Z,76
2016-10-25T10:26:31.412Z,84
2016-10-25T10:27:31.035Z,100
2016-10-25T10:28:31.129Z,104
2016-10-25T10:29:32.368Z,108
2016-10-25T10:30:45.648Z,96
2016-10-25T10:31:31.282Z,92
2016-10-25T10:32:30.902Z,88
2016-10-25T10:33:30.920Z,92
2016-10-25T10:34:31.177Z,100
2016-10-25T10:35:32.945Z,100
2016-10-25T10:36:31.110Z,96
2016-10-25T10:37:46.913Z,84
2016-10-25T10:38:30.733Z,76
2016-10-25T10:39:46.057Z,80
2016-10-25T10:40:31.051Z,104
2016-10-25T10:41:45.713Z,116
2016-10-25T10:42:31.307Z,124
2016-10-25T10:43:30.541Z,144
2016-10-25T10:44:30.966Z,140
2016-10-25T10:45:31.406Z,148
2016-10-25T10:46:31.159Z,148
2016-10-25T10:47:30.476Z,148
2016-10-25T10:48:30.895Z,140
2016-10-25T10:49:30.425Z,128
2016-10-25T10:50:31.190Z,132
2016-10-25T10:51:30.740Z,132
2016-10-25T10:52:30.835Z,124
2016-10-25T10:53:30.344Z,116
2016-10-25T10:54:30.254Z,128
2016-10-25T10:55:30.694Z,132
2016-10-25T10:56:30.200Z,132
2016-10-25T10:57:30.505Z,128
2016-10-25T10:58:30.161Z,116
2016-10-25T10:59:30.920Z,112
2016-10-25T11:00:30.100Z,104
2016-10-25T11:01:45.298Z,92
2016-10-25T11:02:30.428Z,84
2016-10-25T11:03:59.445Z,88
2016-10-25T11:04:30.444Z,88
2016-10-25T11:05:30.720Z,88
2016-10-25T11:06:30.161Z,96
2016-10-25T11:07:30.477Z,100
2016-10-25T11:09:30.172Z,120
2016-10-25T11:10:29.791Z,116
2016-10-25T11:11:29.745Z,108
2016-10-25T11:12:29.790Z,120
2016-10-25T11:13:29.748Z,140
2016-10-25T11:14:30.304Z,136
2016-10-25T11:15:29.735Z,128
2016-10-25T11:16:29.951Z,132
2016-10-25T11:17:30.586Z,128
2016-10-25T11:18:29.976Z,136
2016-10-25T11:19:29.883Z,128
2016-10-25T11:20:29.792Z,132
2016-10-25T11:21:30.510Z,132
2016-10-25T11:22:29.950Z,140
2016-10-25T11:23:44.367Z,140
2016-10-25T11:24:30.398Z,144
2016-10-25T11:25:44.456Z,144
2016-10-25T11:26:30.696Z,148
2016-10-25T11:27:30.036Z,160
2016-10-25T11:28:29.363Z,180
2016-10-25T11:29:29.352Z,196
2016-10-25T11:30:29.465Z,216
2016-10-25T11:31:29.662Z,212
2016-10-25T11:32:30.000Z,200
2016-10-25T11:33:29.130Z,196
2016-10-25T11:34:29.262Z,200
2016-10-25T11:35:29.978Z,216
2016-10-25T11:36:29.049Z,224
2016-10-25T11:37:29.013Z,224
2016-10-25T11:38:29.012Z,204
2016-10-25T11:39:29.363Z,184
2016-10-25T11:40:28.916Z,200
2016-10-25T11:41:29.359Z,236
2016-10-25T11:42:43.601Z,224
2016-10-25T11:43:28.845Z,192
2016-10-25T11:44:28.907Z,168
2016-10-25T11:45:30.950Z,204
2016-10-25T11:46:29.980Z,276
2016-10-25T11:47:44.744Z,280
2016-10-25T11:48:28.734Z,280
2016-10-25T11:49:44.086Z,284
2016-10-25T11:50:29.043Z,300
2016-10-25T11:51:29.011Z,284
2016-10-25T11:52:29.601Z,188
2016-10-25T11:53:28.995Z,188
2016-10-25T11:54:28.606Z,172
2016-10-25T11:55:30.121Z,144
2016-10-25T11:56:28.670Z,136
2016-10-25T11:57:28.559Z,140
2016-10-25T11:58:28.470Z,148
2016-10-25T11:59:28.801Z,156
2016-10-25T12:00:28.758Z,180
2016-10-25T12:01:28.932Z,204
2016-10-25T12:04:21.246Z,236
2016-10-25T12:04:51.910Z,228
2016-10-25T12:06:06.987Z,224
2016-10-25T12:06:51.451Z,252
2016-10-25T12:07:51.319Z,252
2016-10-25T12:08:51.784Z,260
2016-10-25T12:09:51.743Z,276
2016-10-25T12:10:51.219Z,228
2016-10-25T12:11:51.270Z,172
2016-10-25T12:12:51.553Z,140
2016-10-25T12:13:51.913Z,104
2016-10-25T12:14:51.170Z,100
2016-10-25T12:15:52.797Z,96
2016-10-25T12:16:51.439Z,96
2016-10-25T12:17:51.087Z,108
2016-10-25T12:18:51.085Z,108
2016-10-25T12:19:51.046Z,128
2016-10-25T12:20:51.399Z,176
2016-10-25T12:21:51.544Z,220
2016-10-25T12:22:51.598Z,240
2016-10-25T12:23:50.897Z,228
2016-10-25T12:24:51.001Z,192
2016-10-25T12:25:51.723Z,180
2016-10-25T12:26:50.797Z,200
2016-10-25T12:27:50.817Z,208
2016-10-25T12:28:51.133Z,208
2016-10-25T12:29:50.728Z,196
2016-10-25T12:30:51.042Z,188
2016-10-25T12:32:20.241Z,192
2016-10-25T12:32:50.963Z,196
2016-10-25T12:33:51.571Z,200
2016-10-25T12:34:50.588Z,196
2016-10-25T12:35:50.501Z,192
2016-10-25T12:36:50.568Z,200
2016-10-25T12:38:05.535Z,200
2016-10-25T12:38:50.455Z,188
2016-10-25T12:39:50.791Z,160
2016-10-25T12:40:50.444Z,140
2016-10-25T12:41:51.638Z,132
2016-10-25T12:42:50.770Z,128
2016-10-25T12:43:53.836Z,136
2016-10-25T12:44:50.619Z,140
2016-10-25T12:49:06.065Z,140
2016-10-25T12:49:36.980Z,136
2016-10-25T12:50:36.997Z,148
2016-10-25T12:51:36.952Z,168
2016-10-25T12:52:37.076Z,160
2016-10-25T12:53:36.529Z,152
2016-10-25T12:54:36.519Z,132
2016-10-25T12:55:36.452Z,108
2016-10-25T12:56:51.238Z,120
2016-10-25T12:57:37.052Z,136
2016-10-25T12:58:51.041Z,140
2016-10-25T12:59:36.345Z,140
2016-10-25T13:00:51.475Z,136
2016-10-25T13:01:36.752Z,144
2016-10-25T13:02:51.754Z,136
2016-10-25T13:03:36.208Z,132
2016-10-25T13:04:36.176Z,128
2016-10-25T13:05:36.976Z,148
2016-10-25T13:06:36.189Z,168
2016-10-25T13:07:36.137Z,176
2016-10-25T13:08:36.821Z,160
2016-10-25T13:12:36.903Z,108
2016-10-25T13:13:36.845Z,96
2016-10-25T13:14:22.475Z,92
2016-10-25T13:15:22.819Z,88
2016-10-25T13:16:22.455Z,72
2016-10-25T13:19:00.629Z,80
2016-10-25T13:19:45.258Z,84
2016-10-25T13:20:45.688Z,104
2016-10-25T13:21:45.094Z,112
2016-10-25T13:22:45.297Z,108
2016-10-25T13:23:59.782Z,96
2016-10-25T13:24:45.514Z,84
2016-10-25T13:25:45.434Z,76
2016-10-25T13:26:59.685Z,88
2016-10-25T13:27:45.811Z,84
2016-10-25T13:28:45.165Z,80
2016-10-25T13:29:45.386Z,80
2016-10-25T13:30:45.193Z,72
2016-10-25T13:31:46.062Z,84
2016-10-25T13:34:22.623Z,84
2016-10-25T13:35:08.413Z,72
2016-10-25T13:36:08.404Z,76
2016-10-25T13:38:20.687Z,80
2016-10-25T13:39:08.144Z,84
2016-10-25T13:40:22.488Z,88
2016-10-25T13:41:08.142Z,84
2016-10-25T13:42:07.810Z,80
2016-10-25T13:43:08.372Z,72
2016-10-25T13:44:08.067Z,68
2016-10-25T13:45:08.113Z,60
2016-10-25T13:46:08.321Z,56
2016-10-25T13:47:07.624Z,40
2016-10-25T13:48:07.949Z,44
2016-10-25T13:49:07.711Z,52
2016-10-25T13:50:08.191Z,52
2016-10-25T13:51:07.497Z,48
2016-10-25T13:52:07.412Z,44
2016-10-25T13:53:22.113Z,36
2016-10-25T13:54:07.508Z,36
2016-10-25T13:55:07.403Z,32
2016-10-25T13:56:07.561Z,28
2016-10-25T13:57:07.829Z,28
2016-10-25T13:58:07.800Z,28
2016-10-25T13:59:07.608Z,28
2016-10-25T14:00:07.602Z,32
2016-10-25T14:01:07.549Z,36
2016-10-25T14:02:21.953Z,36
2016-10-25T14:05:53.941Z,32
2016-10-25T14:06:53.437Z,36
2016-10-25T14:07:53.889Z,36
2016-10-25T14:08:53.418Z,36
2016-10-25T14:09:53.393Z,44
2016-10-25T14:10:53.459Z,48
2016-10-25T14:11:53.337Z,48
2016-10-25T14:12:53.753Z,44
2016-10-25T14:14:08.078Z,36
2016-10-25T14:14:53.929Z,36
2016-10-25T14:15:53.184Z,32
2016-10-25T14:16:53.555Z,36
2016-10-25T14:17:53.513Z,36
2016-10-25T14:18:53.488Z,36
2016-10-25T14:20:07.865Z,36
2016-10-25T14:20:54.579Z,36
2016-10-25T14:21:53.022Z,36
2016-10-25T14:24:08.042Z,28
2016-10-25T14:24:53.351Z,28
2016-10-25T14:25:53.333Z,24
2016-10-25T14:28:16.908Z,28
2016-10-25T14:29:17.235Z,32
2016-10-25T14:30:16.779Z,36
2016-10-25T14:31:16.060Z,36
2016-10-25T14:32:16.115Z,32
2016-10-25T14:33:16.333Z,36
2016-10-25T14:34:16.553Z,36
2016-10-25T14:35:16.214Z,36
2016-10-25T14:36:16.469Z,36
2016-10-25T14:37:16.115Z,36
2016-10-25T14:38:15.702Z,32
2016-10-25T14:39:16.402Z,32
2016-10-25T14:40:17.232Z,28
2016-10-25T14:41:16.750Z,24
2016-10-25T14:42:16.103Z,24
2016-10-25T14:43:15.964Z,24
2016-10-25T14:44:16.021Z,24
2016-10-25T14:45:15.944Z,20
2016-10-25T14:46:16.000Z,24
2016-10-25T14:48:54.703Z,28
2016-10-25T14:49:39.454Z,28
2016-10-25T14:50:39.743Z,28
2016-10-25T14:51:38.526Z,28
2016-10-25T14:52:38.835Z,32
2016-10-25T14:53:39.222Z,32
2016-10-25T14:54:38.798Z,28
2016-10-25T14:55:53.487Z,32
2016-10-25T14:56:39.158Z,32
2016-10-25T14:57:38.813Z,36
2016-10-25T14:58:38.426Z,40
2016-10-25T14:59:39.042Z,40
2016-10-25T15:00:39.046Z,44
2016-10-25T15:01:38.732Z,44
2016-10-25T15:02:39.031Z,44
2016-10-25T15:03:38.158Z,36